Time;durP1;ratioP1;P1;durP2;ratioP2;P2;SDS_P1;SDS_P2;PMS_P1;PMS_P2;Temp;Humidity;BMP_temperature;BMP_pressure;BME280_temperature;BME280_humidity;BME280_pressure;Samples;Min_cycle;Max_cycle;Signal;HPM_P1;HPM_P2
2022/08/18 00:02:14;;;;;;;5.00;3.08;;;24.00;71.20;;;;;;5039305;28;20521;-68
2022/08/18 00:04:41;;;;;;;2.95;2.75;;;24.00;70.30;;;;;;5036255;28;20568;-69
2022/08/18 00:07:12;;;;;;;5.05;3.45;;;24.30;69.40;;;;;;5039313;28;20265;-71
2022/08/18 00:09:39;;;;;;;5.57;3.40;;;24.50;68.90;;;;;;5040841;28;20172;-70
2022/08/18 00:12:15;;;;;;;3.58;3.28;;;24.50;68.90;;;;;;5041247;28;20194;-71
2022/08/18 00:14:42;;;;;;;3.00;2.78;;;24.60;68.90;;;;;;5040429;28;20180;-73
2022/08/18 00:17:08;;;;;;;6.47;3.70;;;24.60;69.50;;;;;;5042682;28;20203;-72
2022/08/18 00:19:33;;;;;;;5.32;3.50;;;24.70;70.10;;;;;;5040456;28;20650;-71
2022/08/18 00:21:59;;;;;;;5.13;3.47;;;24.70;70.70;;;;;;5038283;28;20326;-71
2022/08/18 00:24:25;;;;;;;6.40;4.00;;;24.70;72.80;;;;;;5041700;28;20195;-71
2022/08/18 00:26:51;;;;;;;4.82;3.50;;;24.70;75.50;;;;;;5039250;28;20203;-71
2022/08/18 00:29:17;;;;;;;5.35;3.67;;;24.50;77.30;;;;;;5026868;28;20639;-71
2022/08/18 00:31:43;;;;;;;5.30;3.05;;;24.40;79.80;;;;;;5022920;28;20169;-71
2022/08/18 00:34:08;;;;;;;3.40;3.10;;;24.30;81.60;;;;;;5026240;28;20180;-70
2022/08/18 00:36:34;;;;;;;3.65;3.33;;;24.20;82.80;;;;;;5038756;28;20193;-71
2022/08/18 00:39:01;;;;;;;4.00;3.65;;;24.00;84.40;;;;;;5020201;28;20710;-71
2022/08/18 00:41:27;;;;;;;3.90;3.60;;;23.90;86.30;;;;;;5024743;28;20549;-71
2022/08/18 00:43:57;;;;;;;4.80;2.97;;;23.90;87.50;;;;;;5026751;28;20585;-71
2022/08/18 00:46:34;;;;;;;4.22;3.92;;;23.90;87.60;;;;;;5027235;28;20193;-71
2022/08/18 00:49:00;;;;;;;4.93;3.67;;;23.80;88.00;;;;;;5032272;28;20238;-71
2022/08/18 00:51:35;;;;;;;5.47;3.30;;;23.80;88.60;;;;;;5032073;28;20192;-71
2022/08/18 00:54:09;;;;;;;6.05;3.88;;;23.70;89.00;;;;;;5032856;28;20226;-71
2022/08/18 00:56:41;;;;;;;7.15;3.55;;;23.60;88.70;;;;;;5032146;28;20215;-71
2022/08/18 00:59:18;;;;;;;5.47;3.78;;;23.50;88.40;;;;;;5033236;28;20177;-71
2022/08/18 01:01:47;;;;;;;4.38;3.60;;;23.60;88.30;;;;;;5025524;28;20271;-71
2022/08/18 01:04:35;;;;;;;3.42;3.13;;;23.50;88.10;;;;;;5029822;28;20181;-71
2022/08/18 01:07:19;;;;;;;3.92;3.25;;;23.60;87.80;;;;;;5027765;28;20203;-70
2022/08/18 01:09:46;;;;;;;3.70;3.50;;;23.70;88.00;;;;;;5035426;28;20286;-70
2022/08/18 01:12:12;;;;;;;3.58;3.28;;;23.60;88.30;;;;;;5029374;28;20188;-70
2022/08/18 01:14:37;;;;;;;3.42;3.15;;;23.50;89.00;;;;;;5029778;28;20185;-70
2022/08/18 01:22:48;;;;;;;3.65;3.35;;;23.40;91.80;;;;;;5040041;28;20191;-68
2022/08/18 01:28:02;;;;;;;3.78;3.40;;;23.30;94.20;;;;;;5036462;28;20739;-68
2022/08/18 01:30:29;;;;;;;4.05;3.75;;;23.20;95.50;;;;;;5036105;28;20187;-68
2022/08/18 01:32:56;;;;;;;4.18;3.55;;;23.10;95.10;;;;;;5038264;28;20243;-68
2022/08/18 01:35:26;;;;;;;3.83;3.58;;;23.00;96.20;;;;;;5047587;28;20176;-68
2022/08/18 01:37:53;;;;;;;4.93;3.70;;;22.90;98.70;;;;;;5040345;28;20204;-68
2022/08/18 01:40:21;;;;;;;8.05;4.50;;;22.80;99.90;;;;;;5042873;28;20265;-68
2022/08/18 01:42:47;;;;;;;5.25;4.75;;;22.50;99.90;;;;;;5037741;28;20260;-71
2022/08/18 01:45:15;;;;;;;7.30;5.57;;;22.00;99.90;;;;;;5029897;28;20718;-71
2022/08/18 01:47:41;;;;;;;6.28;5.82;;;21.50;99.90;;;;;;5046049;28;20424;-71
2022/08/18 01:50:09;;;;;;;7.60;6.20;;;20.90;99.90;;;;;;5040045;28;20256;-70
2022/08/18 01:52:35;;;;;;;6.63;5.00;;;20.40;99.90;;;;;;5043670;28;20601;-70
2022/08/18 01:55:01;;;;;;;6.22;5.75;;;19.90;99.90;;;;;;5042091;28;20181;-70
2022/08/18 01:57:28;;;;;;;7.93;7.13;;;19.70;99.90;;;;;;5040959;28;20243;-70
2022/08/18 01:59:54;;;;;;;8.18;7.10;;;19.50;99.90;;;;;;5046042;28;20275;-70
2022/08/18 02:02:24;;;;;;;8.73;7.82;;;19.40;99.90;;;;;;5037243;28;20232;-70
2022/08/18 02:04:58;;;;;;;7.28;6.65;;;19.30;99.90;;;;;;5048279;28;20184;-70
2022/08/18 02:07:23;;;;;;;9.88;8.13;;;19.20;99.90;;;;;;5033308;28;20306;-70
2022/08/18 02:09:49;;;;;;;7.35;6.80;;;19.30;99.90;;;;;;5047161;28;20378;-72
2022/08/18 02:12:15;;;;;;;7.38;6.78;;;19.30;99.90;;;;;;5036971;28;20192;-71
2022/08/18 02:14:41;;;;;;;7.45;6.82;;;19.30;99.90;;;;;;5040892;28;20212;-71
2022/08/18 02:17:08;;;;;;;5.75;5.35;;;19.40;99.90;;;;;;5044983;28;20242;-71
2022/08/18 02:19:37;;;;;;;6.43;5.82;;;19.30;99.90;;;;;;5025706;28;20678;-72
2022/08/18 02:22:03;;;;;;;8.00;7.40;;;19.30;99.90;;;;;;5048161;28;20267;-72
2022/08/18 02:24:29;;;;;;;7.00;6.47;;;19.30;99.90;;;;;;5037335;28;20220;-71
2022/08/18 02:26:55;;;;;;;7.00;6.43;;;19.30;99.90;;;;;;5044054;28;20205;-72
2022/08/18 02:29:21;;;;;;;6.00;5.60;;;19.20;99.90;;;;;;5034314;28;20177;-72
2022/08/18 02:31:46;;;;;;;6.38;5.78;;;19.20;99.90;;;;;;5036188;28;20244;-72
2022/08/18 02:34:12;;;;;;;6.80;6.20;;;19.10;99.90;;;;;;5041718;28;20562;-71
2022/08/18 02:36:38;;;;;;;7.72;6.30;;;19.10;99.90;;;;;;5042016;28;20238;-71
2022/08/18 02:39:03;;;;;;;5.28;4.88;;;19.20;99.90;;;;;;5041729;28;20539;-72
2022/08/18 02:41:30;;;;;;;5.60;5.18;;;19.30;99.90;;;;;;5049274;28;20180;-71
2022/08/18 02:43:56;;;;;;;6.35;5.88;;;19.20;99.90;;;;;;5036960;28;20261;-72
2022/08/18 02:46:22;;;;;;;6.10;5.53;;;19.30;99.90;;;;;;5036133;28;20200;-72
2022/08/18 02:48:49;;;;;;;6.40;5.80;;;19.30;99.90;;;;;;5045043;28;20505;-72
2022/08/18 02:51:16;;;;;;;5.28;4.55;;;19.30;99.90;;;;;;5037508;28;20175;-72
2022/08/18 02:53:44;;;;;;;7.20;6.60;;;19.40;99.90;;;;;;5044475;28;20186;-72
2022/08/18 02:56:22;;;;;;;7.72;6.97;;;19.50;99.90;;;;;;5042902;28;20233;-72
2022/08/18 02:58:54;;;;;;;9.52;7.50;;;19.50;99.90;;;;;;5036226;28;20325;-72
2022/08/18 03:01:27;;;;;;;7.40;6.80;;;19.60;99.90;;;;;;5033409;28;20180;-72
2022/08/18 03:03:54;;;;;;;6.25;4.85;;;19.70;99.90;;;;;;5040145;28;20297;-71
2022/08/18 03:06:21;;;;;;;5.50;4.97;;;19.70;99.90;;;;;;5029790;28;20668;-71
2022/08/18 03:08:49;;;;;;;5.57;5.15;;;19.70;99.90;;;;;;5029428;28;20233;-70
2022/08/18 03:11:16;;;;;;;5.90;5.50;;;19.80;99.90;;;;;;5030647;28;20173;-70
2022/08/18 03:13:41;;;;;;;5.50;5.00;;;19.80;99.90;;;;;;5036713;28;20204;-72
2022/08/18 03:16:07;;;;;;;5.88;5.47;;;19.90;99.90;;;;;;5046119;28;20229;-71
2022/08/18 03:18:33;;;;;;;5.97;5.22;;;19.90;99.90;;;;;;5022136;28;20185;-71
2022/08/18 03:21:05;;;;;;;4.93;4.53;;;19.90;99.90;;;;;;5048332;28;20184;-72
2022/08/18 03:23:31;;;;;;;4.35;4.05;;;20.00;99.90;;;;;;5037055;28;20180;-72
2022/08/18 03:25:56;;;;;;;6.20;5.60;;;20.00;99.90;;;;;;5042087;28;20184;-72
2022/08/18 03:28:22;;;;;;;5.97;5.47;;;20.10;99.90;;;;;;5030135;28;20235;-72
2022/08/18 03:30:48;;;;;;;5.60;5.13;;;20.30;99.90;;;;;;5031502;28;20180;-72
2022/08/18 03:33:13;;;;;;;5.32;4.95;;;20.30;99.90;;;;;;5031356;28;20176;-72
2022/08/18 03:35:40;;;;;;;5.90;4.90;;;20.40;99.90;;;;;;5038529;28;20561;-72
2022/08/18 03:38:06;;;;;;;5.07;4.60;;;20.50;99.90;;;;;;5045595;28;20218;-69
2022/08/18 03:40:32;;;;;;;4.68;4.38;;;20.50;99.90;;;;;;5038318;28;20184;-70
2022/08/18 03:42:58;;;;;;;5.63;5.22;;;20.40;99.90;;;;;;5051034;28;20226;-70
2022/08/18 03:45:27;;;;;;;4.35;4.07;;;20.50;99.90;;;;;;5035359;28;20182;-71
2022/08/18 03:47:52;;;;;;;4.45;4.15;;;20.40;99.90;;;;;;5042446;28;20243;-69
2022/08/18 03:50:18;;;;;;;5.22;4.68;;;20.50;99.90;;;;;;5044492;28;20665;-69
2022/08/18 03:52:48;;;;;;;4.80;4.18;;;20.50;99.90;;;;;;5036507;28;20592;-70
2022/08/18 03:55:14;;;;;;;5.10;4.70;;;20.50;99.90;;;;;;5029823;28;20196;-68
2022/08/18 03:57:42;;;;;;;4.90;4.50;;;20.60;99.90;;;;;;5035132;28;20207;-69
2022/08/18 04:00:08;;;;;;;4.93;4.45;;;20.70;99.90;;;;;;5043520;28;20259;-69
2022/08/18 04:02:34;;;;;;;4.88;4.40;;;20.80;99.90;;;;;;5040049;28;20647;-69
2022/08/18 04:05:00;;;;;;;5.13;4.72;;;21.00;99.90;;;;;;5045258;28;20184;-72
2022/08/18 04:07:25;;;;;;;4.40;4.10;;;21.10;99.90;;;;;;5025177;28;20208;-69
2022/08/18 04:09:51;;;;;;;4.93;4.47;;;21.00;99.90;;;;;;5046942;28;20184;-68
2022/08/18 04:12:17;;;;;;;4.60;4.30;;;21.00;99.90;;;;;;5039216;28;20235;-69
2022/08/18 04:14:46;;;;;;;5.47;5.00;;;21.00;99.90;;;;;;5037973;28;20188;-70
2022/08/18 04:17:12;;;;;;;4.97;4.57;;;20.90;99.90;;;;;;5036333;28;20208;-69
2022/08/18 04:19:38;;;;;;;5.60;5.10;;;20.80;99.90;;;;;;5040298;28;20184;-68
2022/08/18 04:22:04;;;;;;;4.95;4.65;;;20.90;99.90;;;;;;5045041;28;20204;-70
2022/08/18 04:24:31;;;;;;;5.07;4.68;;;20.80;99.90;;;;;;5035110;28;20258;-70
2022/08/18 04:26:59;;;;;;;5.47;4.60;;;20.70;99.90;;;;;;5031765;28;21104;-71
2022/08/18 04:29:25;;;;;;;5.10;4.70;;;20.70;99.90;;;;;;5039013;28;20200;-70
2022/08/18 04:31:51;;;;;;;4.60;4.30;;;20.60;99.90;;;;;;5042269;28;20705;-70
2022/08/18 04:34:19;;;;;;;5.00;4.60;;;20.60;99.90;;;;;;5042714;28;20180;-70
2022/08/18 04:36:46;;;;;;;5.00;4.60;;;20.60;99.90;;;;;;5038418;28;20204;-71
2022/08/18 04:39:12;;;;;;;7.05;4.90;;;20.50;99.90;;;;;;5030922;28;20203;-70
2022/08/18 04:41:41;;;;;;;5.72;4.60;;;20.50;99.90;;;;;;5036974;28;20702;-78
2022/08/18 04:44:09;;;;;;;5.10;4.70;;;20.50;99.90;;;;;;5033985;28;20190;-75
2022/08/18 04:46:38;;;;;;;5.38;4.93;;;20.40;99.90;;;;;;5034306;28;20208;-77
2022/08/18 04:49:05;;;;;;;4.63;4.22;;;20.40;99.90;;;;;;5040235;28;20189;-77
2022/08/18 04:51:30;;;;;;;4.68;4.15;;;20.50;99.90;;;;;;5040284;28;20193;-76
2022/08/18 04:54:00;;;;;;;5.40;5.00;;;20.50;99.90;;;;;;5036843;28;20188;-74
2022/08/18 04:56:35;;;;;;;5.03;4.63;;;20.50;99.90;;;;;;5050836;28;20275;-77
2022/08/18 04:59:05;;;;;;;4.72;4.43;;;20.50;99.90;;;;;;5040989;28;20219;-75
2022/08/18 05:01:37;;;;;;;4.95;4.55;;;20.50;99.90;;;;;;5038755;28;20181;-76
2022/08/18 05:07:25;;;;;;;5.82;4.50;;;20.50;99.90;;;;;;5045349;28;20252;-78
2022/08/18 05:09:52;;;;;;;5.78;5.28;;;20.60;99.90;;;;;;5040489;28;20656;-77
2022/08/18 05:12:18;;;;;;;5.20;4.90;;;20.60;99.90;;;;;;5033356;28;20907;-76
2022/08/18 05:14:44;;;;;;;5.07;4.70;;;20.60;99.90;;;;;;5039628;28;20255;-77
2022/08/18 05:17:11;;;;;;;6.22;5.30;;;20.60;99.90;;;;;;5038196;28;20201;-75
2022/08/18 05:19:36;;;;;;;4.90;4.38;;;20.60;99.90;;;;;;5030713;28;20208;-76
2022/08/18 05:22:03;;;;;;;5.40;4.88;;;20.60;99.90;;;;;;5028510;28;20193;-75
2022/08/18 05:24:31;;;;;;;5.35;4.95;;;20.60;99.90;;;;;;5023943;28;20185;-78
2022/08/18 05:26:57;;;;;;;6.82;4.93;;;20.60;99.90;;;;;;5027381;28;20249;-74
2022/08/18 05:29:23;;;;;;;4.80;4.50;;;20.60;99.90;;;;;;5029827;28;20178;-76
2022/08/18 05:31:51;;;;;;;5.57;5.07;;;20.50;99.90;;;;;;5041579;28;20302;-75
2022/08/18 05:34:20;;;;;;;7.72;5.43;;;20.60;99.90;;;;;;5051511;28;20558;-75
2022/08/18 05:37:25;;;;;;;5.20;4.70;;;20.70;99.90;;;;;;5036905;28;20199;-76
2022/08/18 05:39:56;;;;;;;4.88;4.43;;;20.90;99.90;;;;;;5042661;28;20189;-75
2022/08/18 05:42:24;;;;;;;6.72;4.90;;;21.10;99.90;;;;;;5039147;28;20200;-74
2022/08/18 05:44:52;;;;;;;5.03;4.63;;;21.20;99.90;;;;;;5065649;28;20183;-75
2022/08/18 05:47:29;;;;;;;7.25;5.07;;;21.30;99.90;;;;;;5041475;28;20282;-75
2022/08/18 05:50:02;;;;;;;5.05;4.65;;;21.40;99.90;;;;;;5065956;28;20319;-70
2022/08/18 05:52:34;;;;;;;5.35;4.95;;;21.40;99.90;;;;;;5042282;28;20638;-72
2022/08/18 05:57:59;;;;;;;5.75;4.90;;;21.30;99.90;;;;;;5038723;28;20243;-69
2022/08/18 06:00:25;;;;;;;6.43;5.13;;;21.20;99.90;;;;;;5037207;28;20179;-68
2022/08/18 06:02:58;;;;;;;4.95;4.65;;;21.20;99.90;;;;;;5040667;28;20226;-69
2022/08/18 06:05:45;;;;;;;5.00;4.55;;;21.20;99.90;;;;;;5039869;28;20596;-69
2022/08/18 06:08:13;;;;;;;4.97;4.57;;;21.40;99.90;;;;;;5034372;28;20234;-69
2022/08/18 06:10:44;;;;;;;5.50;4.05;;;21.70;99.90;;;;;;5033029;28;20180;-69
2022/08/18 06:13:11;;;;;;;4.90;4.50;;;22.00;99.90;;;;;;5042371;28;20682;-70
2022/08/18 06:15:55;;;;;;;11.55;4.80;;;22.30;99.90;;;;;;5040878;28;20195;-69
2022/08/18 06:18:32;;;;;;;4.75;4.30;;;22.40;99.90;;;;;;5016993;28;20192;-68
2022/08/18 06:21:26;;;;;;;5.82;4.85;;;22.40;99.90;;;;;;5016292;28;20180;-69
2022/08/18 06:24:26;;;;;;;5.18;4.68;;;22.50;99.90;;;;;;5017092;28;20771;-69
2022/08/18 06:27:19;;;;;;;5.32;4.80;;;22.60;99.90;;;;;;5023620;28;20229;-71
2022/08/18 06:29:50;;;;;;;4.60;4.30;;;22.70;99.90;;;;;;5019183;28;20177;-70
2022/08/18 06:32:25;;;;;;;5.22;4.60;;;22.80;99.90;;;;;;5024761;28;20182;-70
2022/08/18 06:34:50;;;;;;;4.72;4.43;;;22.80;99.90;;;;;;5032197;28;20180;-72
2022/08/18 06:37:22;;;;;;;4.22;3.97;;;22.80;99.90;;;;;;5027886;28;20250;-71
2022/08/18 06:39:50;;;;;;;4.70;4.40;;;22.90;99.90;;;;;;5022994;28;20584;-71
2022/08/18 06:42:25;;;;;;;4.65;4.25;;;22.90;99.90;;;;;;5028344;28;20318;-71
2022/08/18 06:45:01;;;;;;;4.80;4.40;;;22.80;99.90;;;;;;5034066;28;20322;-72
2022/08/18 06:47:41;;;;;;;5.72;4.78;;;22.80;99.90;;;;;;5029243;28;20217;-72
2022/08/18 06:50:25;;;;;;;5.45;4.97;;;22.70;99.90;;;;;;5034875;28;20180;-71
2022/08/18 06:52:57;;;;;;;5.28;4.40;;;22.80;99.90;;;;;;5041766;28;20755;-72
2022/08/18 06:55:36;;;;;;;4.60;4.30;;;23.00;99.90;;;;;;5044210;28;20591;-72
2022/08/18 06:58:21;;;;;;;4.57;4.28;;;23.30;99.90;;;;;;5030093;28;20316;-72
2022/08/18 07:00:50;;;;;;;4.95;4.50;;;23.50;99.90;;;;;;5040828;28;20500;-72
2022/08/18 07:03:19;;;;;;;5.03;4.20;;;23.80;99.90;;;;;;5049312;28;20189;-72
2022/08/18 07:06:17;;;;;;;5.10;4.32;;;23.90;99.90;;;;;;5030302;28;20537;-72
2022/08/18 07:08:44;;;;;;;4.72;4.32;;;24.00;99.90;;;;;;5034259;28;20308;-71
2022/08/18 07:11:20;;;;;;;4.35;4.05;;;24.20;99.90;;;;;;5028473;28;20279;-72
2022/08/18 07:13:49;;;;;;;4.93;4.60;;;24.60;99.90;;;;;;5031786;28;20710;-75
2022/08/18 07:16:33;;;;;;;4.60;4.13;;;25.10;99.90;;;;;;5025631;28;20232;-72
2022/08/18 07:19:15;;;;;;;7.90;4.40;;;25.50;99.90;;;;;;5031714;28;20181;-74
2022/08/18 07:21:42;;;;;;;5.07;4.13;;;25.70;99.90;;;;;;5033337;28;20263;-70
2022/08/18 07:24:26;;;;;;;4.72;4.43;;;25.80;99.90;;;;;;5031751;28;20180;-70
2022/08/18 07:27:06;;;;;;;4.72;4.32;;;25.90;99.90;;;;;;5028143;28;20203;-70
2022/08/18 07:29:56;;;;;;;6.72;4.72;;;25.90;99.90;;;;;;5038367;28;20662;-68
2022/08/18 07:32:24;;;;;;;4.32;4.10;;;25.80;99.90;;;;;;5035452;28;20803;-70
2022/08/18 07:34:54;;;;;;;4.80;4.40;;;26.00;99.90;;;;;;5043986;28;20179;-73
2022/08/18 07:37:28;;;;;;;4.47;3.90;;;26.20;99.90;;;;;;5038574;28;20199;-72
2022/08/18 07:40:02;;;;;;;5.13;4.63;;;26.40;99.00;;;;;;5045668;28;20677;-72
2022/08/18 07:42:37;;;;;;;4.47;4.07;;;26.80;97.80;;;;;;5038358;28;20212;-71
2022/08/18 07:45:28;;;;;;;4.70;4.30;;;27.10;95.90;;;;;;5026653;28;20199;-71
2022/08/18 07:48:27;;;;;;;3.90;3.55;;;27.10;95.10;;;;;;5038176;28;20702;-72
2022/08/18 07:51:17;;;;;;;4.45;3.53;;;27.10;95.50;;;;;;5037277;28;20238;-72
2022/08/18 07:54:00;;;;;;;4.63;4.20;;;27.20;95.00;;;;;;5031122;28;20179;-72
2022/08/18 07:56:53;;;;;;;4.55;4.15;;;27.40;93.70;;;;;;5036758;28;20207;-72
2022/08/18 07:59:47;;;;;;;4.03;3.72;;;27.50;94.10;;;;;;5025350;28;20254;-73
2022/08/18 08:02:35;;;;;;;4.65;4.25;;;28.00;93.20;;;;;;5032973;28;20184;-73
2022/08/18 08:05:19;;;;;;;4.28;3.90;;;28.50;90.70;;;;;;5021044;28;20179;-72
2022/08/18 08:07:49;;;;;;;5.43;4.18;;;28.70;89.20;;;;;;5039801;28;20216;-72
2022/08/18 08:10:29;;;;;;;4.40;4.00;;;28.60;88.60;;;;;;5054079;28;20202;-72
2022/08/18 08:13:27;;;;;;;4.60;4.20;;;28.50;89.30;;;;;;5032072;28;20724;-73
2022/08/18 08:15:59;;;;;;;4.88;4.47;;;28.60;86.70;;;;;;5032941;28;20450;-72
2022/08/18 08:18:44;;;;;;;4.40;4.10;;;28.60;89.80;;;;;;5033249;28;20184;-72
2022/08/18 08:21:15;;;;;;;4.90;4.30;;;28.60;89.70;;;;;;5022938;28;20243;-72
2022/08/18 08:23:59;;;;;;;4.13;3.83;;;28.60;87.70;;;;;;5035296;28;20176;-71
2022/08/18 08:26:41;;;;;;;4.45;3.92;;;28.40;88.30;;;;;;5045370;28;20714;-71
2022/08/18 08:29:07;;;;;;;6.88;4.00;;;28.50;87.30;;;;;;5035659;28;20235;-71
2022/08/18 08:32:12;;;;;;;4.30;4.00;;;28.50;86.80;;;;;;5045259;28;20220;-71
2022/08/18 08:34:43;;;;;;;5.15;4.07;;;28.50;86.00;;;;;;5044460;28;20203;-70
2022/08/18 08:37:15;;;;;;;4.40;4.05;;;28.50;87.10;;;;;;5049370;28;20760;-70
2022/08/18 08:39:48;;;;;;;5.63;4.20;;;28.50;85.90;;;;;;5040002;28;20231;-71
2022/08/18 08:42:32;;;;;;;5.80;4.40;;;28.60;86.60;;;;;;5042912;28;20180;-71
2022/08/18 08:45:04;;;;;;;6.15;4.00;;;28.90;86.80;;;;;;5034138;28;20217;-72
2022/08/18 08:47:42;;;;;;;4.70;4.40;;;29.10;84.50;;;;;;5044243;28;20218;-71
2022/08/18 08:50:15;;;;;;;4.45;4.18;;;29.20;83.70;;;;;;5027703;28;20208;-71
2022/08/18 08:52:50;;;;;;;4.20;3.80;;;29.30;82.80;;;;;;5043305;28;20165;-71
2022/08/18 08:55:40;;;;;;;4.55;4.10;;;29.60;79.60;;;;;;5036624;28;20176;-71
2022/08/18 08:58:35;;;;;;;4.43;3.83;;;30.00;78.70;;;;;;5032468;28;20249;-70
2022/08/18 09:01:01;;;;;;;3.95;3.65;;;30.20;77.30;;;;;;5041392;28;20709;-72
2022/08/18 09:03:46;;;;;;;5.72;4.13;;;30.50;76.30;;;;;;5042240;28;20655;-73
2022/08/18 09:06:47;;;;;;;4.28;3.88;;;30.90;75.60;;;;;;5036892;28;20203;-72
2022/08/18 09:09:31;;;;;;;5.45;3.80;;;31.10;74.20;;;;;;5051898;28;20248;-73
2022/08/18 09:12:10;;;;;;;6.47;4.07;;;31.40;72.10;;;;;;5032489;28;20191;-72
2022/08/18 09:14:44;;;;;;;4.18;3.88;;;31.90;70.50;;;;;;5042008;28;20630;-73
2022/08/18 09:17:23;;;;;;;4.07;3.78;;;31.90;68.80;;;;;;5043879;28;20224;-71
2022/08/18 09:20:07;;;;;;;7.90;3.83;;;32.40;68.50;;;;;;5042290;28;20214;-74
2022/08/18 09:22:47;;;;;;;5.22;3.95;;;33.70;64.30;;;;;;5037890;28;20643;-72
2022/08/18 09:25:38;;;;;;;3.72;3.42;;;33.90;62.40;;;;;;5040481;28;20189;-69
2022/08/18 09:28:21;;;;;;;5.90;4.05;;;33.70;62.80;;;;;;5031056;28;20278;-73
2022/08/18 09:30:46;;;;;;;3.83;3.63;;;33.60;61.50;;;;;;5041949;28;20673;-70
2022/08/18 09:33:36;;;;;;;3.45;3.25;;;33.90;60.00;;;;;;5044196;28;20176;-69
2022/08/18 09:36:30;;;;;;;4.32;3.83;;;35.10;58.10;;;;;;5037794;28;20184;-69
2022/08/18 09:42:11;;;;;;;3.45;3.22;;;37.00;53.70;;;;;;5038755;28;20190;-73
2022/08/18 09:45:07;;;;;;;3.85;3.47;;;37.50;52.00;;;;;;5038997;28;20229;-74
2022/08/18 09:47:32;;;;;;;3.92;3.50;;;37.60;51.60;;;;;;5044272;28;20226;-71
2022/08/18 09:50:04;;;;;;;7.20;4.32;;;37.70;51.60;;;;;;5040920;28;20187;-72
2022/08/18 09:52:32;;;;;;;7.68;6.10;;;37.80;50.10;;;;;;5039480;28;20168;-72
2022/08/18 09:54:58;;;;;;;3.60;3.40;;;37.80;50.00;;;;;;5038861;28;20180;-72
2022/08/18 09:57:23;;;;;;;5.70;4.70;;;37.50;50.50;;;;;;5028379;28;20556;-72
2022/08/18 09:59:50;;;;;;;5.40;3.60;;;36.60;51.90;;;;;;5041841;28;20553;-72
2022/08/18 10:02:26;;;;;;;4.30;3.55;;;35.90;52.90;;;;;;5033744;28;20180;-72
2022/08/18 10:05:14;;;;;;;3.75;3.40;;;35.00;54.10;;;;;;5037426;28;20179;-72
2022/08/18 10:07:44;;;;;;;3.70;3.30;;;34.10;55.20;;;;;;5015999;28;20298;-72
2022/08/18 10:10:30;;;;;;;4.07;3.80;;;33.50;56.40;;;;;;5008947;28;20339;-72
2022/08/18 10:13:04;;;;;;;3.40;3.20;;;33.10;57.30;;;;;;5013415;28;20366;-72
2022/08/18 10:15:47;;;;;;;5.45;3.47;;;33.60;56.90;;;;;;5013402;28;20176;-76
2022/08/18 10:18:32;;;;;;;5.28;3.75;;;35.70;54.60;;;;;;5025828;28;20205;-72
2022/08/18 10:21:21;;;;;;;3.88;3.15;;;38.30;49.60;;;;;;5034431;28;20175;-72
2022/08/18 10:23:46;;;;;;;4.32;3.25;;;39.90;47.20;;;;;;5034224;28;20187;-73
2022/08/18 10:26:47;;;;;;;3.58;3.28;;;41.40;44.60;;;;;;5035836;28;20200;-73
2022/08/18 10:29:28;;;;;;;4.10;3.20;;;42.70;42.10;;;;;;5019445;28;20319;-70
2022/08/18 10:31:56;;;;;;;3.03;2.83;;;42.10;42.20;;;;;;5037860;28;20564;-70
2022/08/18 10:34:36;;;;;;;2.75;2.65;;;42.40;40.80;;;;;;5033921;28;20180;-71
2022/08/18 10:37:33;;;;;;;2.83;2.63;;;43.10;40.40;;;;;;5031175;28;20206;-72
2022/08/18 10:40:12;;;;;;;3.17;2.90;;;43.70;39.20;;;;;;5021947;28;20711;-72
2022/08/18 10:42:58;;;;;;;3.20;2.85;;;44.20;39.50;;;;;;5019891;28;20201;-74
2022/08/18 10:45:30;;;;;;;2.90;2.70;;;44.70;39.10;;;;;;5026904;28;20241;-73
2022/08/18 10:48:20;;;;;;;2.97;2.60;;;45.00;38.20;;;;;;5017354;28;20215;-73
2022/08/18 10:51:10;;;;;;;4.60;2.70;;;46.10;36.10;;;;;;5016540;28;20196;-75
2022/08/18 10:53:54;;;;;;;2.85;2.65;;;46.70;35.60;;;;;;5026137;28;20604;-73
2022/08/18 10:56:46;;;;;;;3.00;2.65;;;46.20;35.70;;;;;;5021869;28;20191;-73
2022/08/18 10:59:18;;;;;;;3.13;2.85;;;46.40;35.90;;;;;;5027086;28;20180;-73
2022/08/18 11:02:22;;;;;;;3.63;2.70;;;46.40;35.00;;;;;;5041849;28;20175;-72
2022/08/18 11:04:51;;;;;;;2.75;2.42;;;45.10;37.20;;;;;;5059609;28;20611;-73
2022/08/18 11:07:26;;;;;;;7.90;3.00;;;45.10;36.50;;;;;;5058053;28;20207;-71
2022/08/18 11:09:54;;;;;;;2.90;2.70;;;45.20;36.60;;;;;;5035660;28;20290;-71
2022/08/18 11:13:01;;;;;;;2.45;2.35;;;44.70;37.10;;;;;;5029259;28;20655;-71
2022/08/18 11:16:05;;;;;;;4.22;2.80;;;45.30;36.10;;;;;;5028541;28;20276;-70
2022/08/18 11:18:34;;;;;;;3.67;2.72;;;45.80;36.00;;;;;;5036414;28;20187;-70
2022/08/18 11:21:23;;;;;;;3.00;2.75;;;45.00;36.70;;;;;;5040148;28;20554;-70
2022/08/18 11:24:01;;;;;;;3.00;2.53;;;45.20;36.30;;;;;;5036538;28;20175;-71
2022/08/18 11:26:30;;;;;;;2.38;2.28;;;45.50;36.80;;;;;;5041284;28;20348;-70
2022/08/18 11:28:56;;;;;;;2.80;2.60;;;45.50;36.70;;;;;;5032622;28;20610;-71
2022/08/18 11:31:23;;;;;;;3.65;2.60;;;46.50;35.20;;;;;;5031924;28;20172;-71
2022/08/18 11:33:49;;;;;;;2.70;2.50;;;46.40;35.20;;;;;;5036267;28;20222;-71
2022/08/18 11:36:15;;;;;;;3.25;2.58;;;46.20;34.50;;;;;;5033137;28;20695;-71
2022/08/18 11:38:54;;;;;;;2.60;2.35;;;45.80;35.80;;;;;;5031900;28;20680;-70
2022/08/18 11:41:25;;;;;;;4.07;2.85;;;45.90;35.40;;;;;;5026843;28;20188;-71
2022/08/18 11:43:58;;;;;;;3.63;2.60;;;46.20;35.90;;;;;;5030029;28;20621;-74
2022/08/18 11:46:39;;;;;;;3.75;2.40;;;46.60;35.10;;;;;;5026089;28;20275;-73
2022/08/18 11:49:16;;;;;;;3.15;2.95;;;46.60;34.90;;;;;;5016795;28;20208;-73
2022/08/18 11:51:58;;;;;;;3.33;2.65;;;46.10;35.50;;;;;;5027710;28;20186;-73
2022/08/18 11:54:39;;;;;;;2.97;2.60;;;46.10;35.80;;;;;;5023261;28;20200;-73
2022/08/18 11:57:28;;;;;;;2.92;2.72;;;47.10;34.50;;;;;;5026175;28;20249;-73
2022/08/18 11:59:55;;;;;;;2.90;2.70;;;46.60;35.40;;;;;;5032570;28;20701;-73
2022/08/18 12:02:24;;;;;;;2.88;2.60;;;46.50;35.00;;;;;;5025484;28;20242;-73
2022/08/18 12:04:59;;;;;;;4.03;2.72;;;46.20;35.40;;;;;;5026917;28;20290;-74
2022/08/18 12:07:32;;;;;;;2.60;2.40;;;46.50;35.00;;;;;;5018993;28;20232;-75
2022/08/18 12:10:21;;;;;;;4.55;2.70;;;46.50;35.20;;;;;;5018388;28;20222;-72
2022/08/18 12:12:49;;;;;;;4.03;2.72;;;45.90;35.50;;;;;;5028444;28;20643;-73
2022/08/18 12:15:17;;;;;;;2.97;2.78;;;45.50;35.50;;;;;;5034939;28;20208;-73
2022/08/18 12:17:45;;;;;;;2.92;2.72;;;44.60;36.50;;;;;;5030866;28;20219;-74
2022/08/18 12:20:13;;;;;;;3.42;2.72;;;44.00;37.90;;;;;;5034754;28;20265;-73
2022/08/18 12:22:41;;;;;;;3.08;2.80;;;43.80;37.30;;;;;;5033631;28;20650;-71
2022/08/18 12:25:16;;;;;;;4.10;2.80;;;43.70;37.50;;;;;;5031470;28;20187;-74
2022/08/18 12:27:42;;;;;;;2.75;2.55;;;43.70;37.80;;;;;;5031331;28;20736;-74
2022/08/18 12:30:09;;;;;;;2.83;2.60;;;43.40;38.20;;;;;;5023796;28;20259;-74
2022/08/18 12:32:36;;;;;;;2.85;2.75;;;43.60;37.60;;;;;;5034570;28;20275;-74
2022/08/18 12:35:04;;;;;;;3.10;2.80;;;43.80;37.90;;;;;;5040770;28;20172;-74
2022/08/18 12:37:30;;;;;;;3.10;2.83;;;44.00;37.30;;;;;;5044755;28;20218;-74
2022/08/18 12:39:57;;;;;;;2.67;2.58;;;44.40;36.80;;;;;;5030327;28;20179;-75
2022/08/18 12:42:24;;;;;;;3.80;2.78;;;43.70;37.00;;;;;;5031164;28;20180;-75
2022/08/18 12:44:51;;;;;;;2.90;2.55;;;43.60;37.30;;;;;;5030112;28;20180;-74
2022/08/18 12:47:25;;;;;;;2.67;2.58;;;44.20;36.80;;;;;;5029456;28;20246;-75
2022/08/18 12:49:51;;;;;;;2.67;2.47;;;44.60;37.00;;;;;;5045900;28;20258;-74
2022/08/18 12:52:18;;;;;;;2.88;2.50;;;45.00;36.00;;;;;;5023257;28;20180;-73
2022/08/18 12:54:45;;;;;;;2.67;2.53;;;44.80;36.20;;;;;;5024920;28;20188;-73
2022/08/18 12:57:19;;;;;;;2.60;2.38;;;44.20;36.20;;;;;;5027554;28;20457;-75
2022/08/18 12:59:45;;;;;;;2.83;2.63;;;44.60;36.50;;;;;;5033100;28;20180;-73
2022/08/18 13:02:11;;;;;;;2.78;2.42;;;45.00;36.00;;;;;;5033356;28;20427;-73
2022/08/18 13:04:37;;;;;;;2.50;2.40;;;45.30;35.20;;;;;;5032450;28;20331;-73
2022/08/18 13:07:03;;;;;;;3.95;2.42;;;45.60;35.20;;;;;;5031131;28;20282;-73
2022/08/18 13:09:31;;;;;;;2.28;2.17;;;46.80;33.90;;;;;;5026058;28;20168;-73
2022/08/18 13:11:56;;;;;;;2.53;2.35;;;46.80;34.40;;;;;;5031376;28;20575;-73
2022/08/18 13:14:22;;;;;;;2.58;2.38;;;46.20;34.50;;;;;;5040256;28;20184;-73
2022/08/18 13:16:48;;;;;;;3.22;2.30;;;46.60;34.90;;;;;;5045078;28;20188;-75
2022/08/18 13:19:13;;;;;;;3.60;2.70;;;47.10;34.30;;;;;;5045014;28;20184;-73
2022/08/18 13:21:40;;;;;;;2.35;2.20;;;47.40;33.60;;;;;;5025577;28;20211;-73
2022/08/18 13:24:05;;;;;;;5.28;2.80;;;47.60;33.40;;;;;;5022790;28;20632;-73
2022/08/18 13:26:37;;;;;;;4.47;2.80;;;47.60;33.40;;;;;;5032027;28;20279;-74
2022/08/18 13:29:03;;;;;;;2.50;2.40;;;47.90;33.10;;;;;;5031466;28;20314;-71
2022/08/18 13:31:30;;;;;;;2.70;2.50;;;48.10;32.20;;;;;;5028148;28;20259;-73
2022/08/18 13:33:57;;;;;;;3.17;2.38;;;46.70;33.70;;;;;;5027256;28;20228;-71
2022/08/18 13:36:23;;;;;;;4.82;2.67;;;45.10;35.20;;;;;;5034103;28;20390;-72